Time;durP1;ratioP1;P1;durP2;ratioP2;P2;SDS_P1;SDS_P2;PMS_P1;PMS_P2;Temp;Humidity;BMP_temperature;BMP_pressure;BME280_temperature;BME280_humidity;BME280_pressure;Samples;Min_cycle;Max_cycle;Signal;HPM_P1;HPM_P2
2021/01/14 00:00:30;;;;;;;13.85;5.53;;;0.90;99.90;;;;;;5027806;28;20746;-66
2021/01/14 00:02:57;;;;;;;14.05;5.50;;;1.00;99.90;;;;;;5027900;28;20061;-67
2021/01/14 00:05:26;;;;;;;12.70;5.13;;;1.00;99.90;;;;;;5018228;28;20492;-67
2021/01/14 00:07:53;;;;;;;13.43;5.07;;;0.90;99.90;;;;;;5025997;28;20041;-66
2021/01/14 00:10:21;;;;;;;14.52;5.38;;;0.90;99.90;;;;;;5029317;28;20116;-66
2021/01/14 00:12:48;;;;;;;16.00;6.53;;;0.90;99.90;;;;;;5031636;28;20041;-67
2021/01/14 00:15:16;;;;;;;15.57;5.80;;;0.90;99.90;;;;;;5027696;28;20045;-67
2021/01/14 00:17:44;;;;;;;17.85;5.85;;;0.90;99.90;;;;;;5003152;28;20104;-67
2021/01/14 00:20:15;;;;;;;13.52;5.72;;;0.90;99.90;;;;;;5029681;28;20051;-66
2021/01/14 00:22:42;;;;;;;15.07;6.15;;;0.90;99.90;;;;;;5012983;28;20119;-66
2021/01/14 00:25:11;;;;;;;21.83;7.30;;;1.00;99.90;;;;;;5010219;28;20408;-66
2021/01/14 00:27:38;;;;;;;20.98;7.95;;;1.00;99.90;;;;;;5028736;28;20381;-67
2021/01/14 00:30:16;;;;;;;18.23;6.65;;;1.00;99.90;;;;;;5028397;28;20041;-67
2021/01/14 00:32:43;;;;;;;18.88;6.30;;;1.00;99.90;;;;;;5030128;28;20049;-68
2021/01/14 00:35:10;;;;;;;19.75;7.85;;;1.00;99.90;;;;;;5030231;28;20045;-67
2021/01/14 00:37:51;;;;;;;19.05;6.65;;;1.00;99.90;;;;;;5020759;28;20046;-67
2021/01/14 00:40:30;;;;;;;20.70;7.55;;;0.90;99.90;;;;;;5029293;28;20144;-67
2021/01/14 00:42:59;;;;;;;18.20;7.28;;;0.90;99.90;;;;;;5027913;28;20045;-67
2021/01/14 00:45:26;;;;;;;23.60;8.25;;;0.90;99.90;;;;;;5010077;28;20484;-67
2021/01/14 00:47:53;;;;;;;21.83;8.07;;;0.80;99.90;;;;;;5024774;28;20519;-67
2021/01/14 00:50:20;;;;;;;23.13;8.48;;;0.80;99.90;;;;;;5022390;28;20061;-67
2021/01/14 00:52:47;;;;;;;21.90;7.75;;;0.80;99.90;;;;;;5029619;28;20095;-67
2021/01/14 00:55:15;;;;;;;25.30;8.70;;;0.80;99.90;;;;;;5028824;28;20452;-66
2021/01/14 00:57:42;;;;;;;20.10;7.88;;;0.80;99.90;;;;;;5022169;28;20045;-66
2021/01/14 01:00:14;;;;;;;18.85;7.50;;;0.70;99.90;;;;;;5029120;28;20049;-66
2021/01/14 01:02:48;;;;;;;19.90;7.30;;;0.70;99.90;;;;;;5028106;28;20045;-66
2021/01/14 01:05:16;;;;;;;16.60;6.85;;;0.70;99.90;;;;;;5029109;28;20518;-66
2021/01/14 01:07:57;;;;;;;23.58;9.38;;;0.60;99.90;;;;;;5026661;28;20044;-66
2021/01/14 01:10:25;;;;;;;24.80;8.90;;;0.70;99.90;;;;;;5017737;28;20041;-66
2021/01/14 01:12:53;;;;;;;23.00;8.07;;;0.60;99.90;;;;;;5020617;28;20141;-66
2021/01/14 01:15:20;;;;;;;26.83;9.32;;;0.60;99.90;;;;;;5019764;28;20691;-66
2021/01/14 01:17:46;;;;;;;22.48;8.18;;;0.60;99.90;;;;;;5016267;28;20057;-66
2021/01/14 01:20:13;;;;;;;19.60;9.05;;;0.60;99.90;;;;;;5027658;28;20103;-66
2021/01/14 01:22:40;;;;;;;23.27;7.80;;;0.60;99.90;;;;;;5026387;28;20618;-66
2021/01/14 01:25:07;;;;;;;24.48;7.50;;;0.70;99.90;;;;;;5028595;28;20033;-67
2021/01/14 01:27:34;;;;;;;21.58;7.45;;;0.70;99.90;;;;;;5030177;28;20037;-67
2021/01/14 01:30:01;;;;;;;17.45;7.88;;;0.80;99.90;;;;;;5022223;28;20076;-67
2021/01/14 01:32:27;;;;;;;20.48;7.43;;;0.70;99.90;;;;;;5028062;28;20044;-67
2021/01/14 01:34:54;;;;;;;20.63;7.78;;;0.80;99.90;;;;;;5027489;28;20053;-67
2021/01/14 01:37:20;;;;;;;14.32;6.28;;;0.80;99.90;;;;;;5029694;28;20045;-67
2021/01/14 01:39:47;;;;;;;18.48;6.50;;;0.90;99.90;;;;;;5022742;28;20046;-68
2021/01/14 01:42:13;;;;;;;15.65;6.30;;;0.90;99.90;;;;;;5022896;28;20103;-67
2021/01/14 01:44:41;;;;;;;17.58;6.22;;;0.90;99.90;;;;;;5027323;28;20527;-67
2021/01/14 01:47:08;;;;;;;16.02;6.30;;;0.90;99.90;;;;;;5019135;28;20073;-68
2021/01/14 01:49:37;;;;;;;18.23;5.55;;;1.00;99.90;;;;;;5003437;28;20050;-67
2021/01/14 01:52:06;;;;;;;15.15;5.45;;;1.00;99.90;;;;;;5028396;28;20045;-67
2021/01/14 01:54:33;;;;;;;21.83;6.70;;;1.00;99.90;;;;;;5030393;28;20068;-67
2021/01/14 01:57:03;;;;;;;17.17;5.63;;;1.10;99.90;;;;;;5032814;28;20432;-67
2021/01/14 01:59:33;;;;;;;16.70;5.75;;;1.10;99.90;;;;;;5032618;28;20041;-67
2021/01/14 02:02:22;;;;;;;17.88;5.68;;;1.10;99.90;;;;;;5029777;28;20052;-67
2021/01/14 02:04:49;;;;;;;15.10;5.65;;;1.20;99.90;;;;;;5013711;28;20049;-67
2021/01/14 02:07:34;;;;;;;17.10;6.00;;;1.20;99.90;;;;;;5033549;28;20092;-67
2021/01/14 02:10:22;;;;;;;13.48;4.93;;;1.30;99.90;;;;;;5024927;28;20042;-66
2021/01/14 02:13:09;;;;;;;13.27;4.90;;;1.30;99.90;;;;;;5024980;28;21670;-67
2021/01/14 02:15:36;;;;;;;15.05;5.35;;;1.30;99.90;;;;;;5029492;28;20119;-67
2021/01/14 02:18:03;;;;;;;11.85;4.15;;;1.30;99.90;;;;;;5027149;28;20500;-67
2021/01/14 02:20:31;;;;;;;11.93;4.50;;;1.40;99.90;;;;;;5032897;28;20053;-66
2021/01/14 02:23:03;;;;;;;12.60;5.20;;;1.40;99.90;;;;;;5031480;28;20145;-67
2021/01/14 02:25:54;;;;;;;13.00;5.32;;;1.40;99.90;;;;;;5030688;28;20034;-66
2021/01/14 02:28:23;;;;;;;9.70;4.03;;;1.40;99.90;;;;;;5011734;28;20065;-66
2021/01/14 02:30:49;;;;;;;13.10;4.40;;;1.40;99.90;;;;;;5032624;28;20046;-66
2021/01/14 02:33:16;;;;;;;14.00;4.75;;;1.40;99.90;;;;;;5030328;28;20535;-67
2021/01/14 02:35:42;;;;;;;15.57;5.50;;;1.40;99.90;;;;;;5031165;28;20049;-67
2021/01/14 02:38:09;;;;;;;13.80;5.30;;;1.40;99.90;;;;;;5029371;28;20107;-67
2021/01/14 02:40:35;;;;;;;13.68;4.63;;;1.40;99.90;;;;;;5021911;28;20038;-67
2021/01/14 02:43:02;;;;;;;12.30;4.60;;;1.40;99.90;;;;;;5032385;28;20443;-67
2021/01/14 02:45:28;;;;;;;12.55;4.90;;;1.50;99.90;;;;;;5025650;28;20049;-67
2021/01/14 02:47:55;;;;;;;13.68;4.28;;;1.40;99.90;;;;;;5029375;28;20038;-66
2021/01/14 02:50:24;;;;;;;12.32;3.72;;;1.40;99.90;;;;;;5029390;28;20103;-66
2021/01/14 02:52:53;;;;;;;11.52;3.30;;;1.50;99.90;;;;;;5031816;28;20046;-66
2021/01/14 02:55:20;;;;;;;10.65;3.80;;;1.50;99.90;;;;;;5030863;28;20042;-67
2021/01/14 02:57:48;;;;;;;8.40;3.08;;;1.50;99.90;;;;;;5032248;28;20049;-66
2021/01/14 03:00:15;;;;;;;6.95;2.35;;;1.50;99.90;;;;;;5007497;28;20088;-67
2021/01/14 03:02:42;;;;;;;7.43;2.97;;;1.50;99.90;;;;;;5029715;28;20045;-66
2021/01/14 03:05:08;;;;;;;5.68;1.65;;;1.60;99.90;;;;;;5031287;28;20041;-67
2021/01/14 03:07:35;;;;;;;8.55;2.17;;;1.70;99.70;;;;;;5027332;28;20113;-67
2021/01/14 03:10:02;;;;;;;4.40;1.40;;;1.70;99.30;;;;;;5004580;28;20049;-66
2021/01/14 03:12:29;;;;;;;10.00;2.70;;;1.80;99.40;;;;;;5030257;28;20045;-66
2021/01/14 03:14:55;;;;;;;6.38;1.42;;;1.80;99.90;;;;;;5031654;28;20044;-67
2021/01/14 03:17:22;;;;;;;6.45;2.00;;;1.70;99.90;;;;;;5031582;28;20496;-67
2021/01/14 03:19:48;;;;;;;7.45;2.47;;;1.70;99.90;;;;;;5025059;28;20045;-67
2021/01/14 03:22:15;;;;;;;9.48;3.17;;;1.60;99.90;;;;;;5020082;28;20111;-67
2021/01/14 03:24:41;;;;;;;9.52;3.53;;;1.60;99.90;;;;;;5029997;28;20111;-66
2021/01/14 03:27:08;;;;;;;13.70;5.15;;;1.50;99.90;;;;;;5027826;28;20521;-67
2021/01/14 03:29:34;;;;;;;12.80;4.60;;;1.40;99.90;;;;;;5013203;28;20054;-67
2021/01/14 03:32:02;;;;;;;15.45;5.38;;;1.30;99.90;;;;;;5028407;28;20053;-67
2021/01/14 03:34:29;;;;;;;15.48;5.82;;;1.30;99.90;;;;;;5028971;28;20037;-66
2021/01/14 03:36:56;;;;;;;14.98;5.47;;;1.30;99.90;;;;;;5025937;28;20061;-67
2021/01/14 03:39:25;;;;;;;19.15;6.43;;;1.20;99.90;;;;;;5033061;28;20457;-67
2021/01/14 03:41:52;;;;;;;15.20;6.63;;;1.20;99.90;;;;;;5031999;28;20049;-67
2021/01/14 03:44:19;;;;;;;15.98;5.68;;;1.10;99.90;;;;;;5013065;28;20477;-66
2021/01/14 03:46:46;;;;;;;14.82;5.55;;;1.10;99.90;;;;;;5025017;28;20046;-67
2021/01/14 03:49:14;;;;;;;17.45;6.78;;;1.10;99.90;;;;;;5031567;28;20091;-67
2021/01/14 03:51:44;;;;;;;19.30;7.05;;;1.00;99.90;;;;;;5032331;28;20038;-67
2021/01/14 03:54:11;;;;;;;17.58;6.90;;;1.00;99.90;;;;;;5030419;28;20038;-67
2021/01/14 03:56:39;;;;;;;17.45;6.57;;;1.00;99.90;;;;;;5029222;28;20048;-67
2021/01/14 03:59:06;;;;;;;18.08;6.55;;;1.00;99.90;;;;;;5030016;28;20060;-67
2021/01/14 04:01:33;;;;;;;12.02;5.68;;;1.00;99.90;;;;;;5027862;28;20052;-67
2021/01/14 04:04:00;;;;;;;17.00;5.53;;;0.90;99.90;;;;;;5028547;28;20053;-67
2021/01/14 04:06:32;;;;;;;15.55;6.15;;;0.90;99.90;;;;;;5026548;28;20037;-67
2021/01/14 04:08:59;;;;;;;19.58;5.57;;;0.90;99.90;;;;;;5028670;28;20056;-67
2021/01/14 04:11:26;;;;;;;14.10;4.75;;;0.90;99.90;;;;;;5030204;28;20488;-67
2021/01/14 04:13:52;;;;;;;14.02;5.93;;;0.90;99.90;;;;;;5029137;28;20041;-67
2021/01/14 04:16:19;;;;;;;15.27;5.40;;;0.90;99.90;;;;;;5028221;28;20049;-67
2021/01/14 04:18:45;;;;;;;17.23;5.65;;;0.90;99.90;;;;;;5030997;28;20060;-67
2021/01/14 04:21:16;;;;;;;16.65;6.22;;;0.90;99.90;;;;;;5028976;28;20084;-67
2021/01/14 04:23:43;;;;;;;18.90;6.25;;;0.90;99.90;;;;;;5028204;28;20042;-66
2021/01/14 04:26:11;;;;;;;17.45;6.18;;;0.90;99.90;;;;;;5029263;28;20038;-67
2021/01/14 04:28:39;;;;;;;15.88;6.40;;;0.90;99.90;;;;;;5029840;28;20144;-67
2021/01/14 04:31:06;;;;;;;17.40;6.53;;;0.90;99.90;;;;;;5029822;28;20096;-67
2021/01/14 04:33:32;;;;;;;19.63;6.65;;;0.90;99.90;;;;;;5008449;28;20054;-66
2021/01/14 04:36:00;;;;;;;18.48;6.75;;;0.80;99.90;;;;;;5024444;28;20045;-67
2021/01/14 04:38:28;;;;;;;17.17;6.60;;;0.80;99.90;;;;;;5021782;28;20622;-66
2021/01/14 04:41:04;;;;;;;21.50;7.45;;;0.70;99.90;;;;;;5028480;28;20087;-66
2021/01/14 04:43:33;;;;;;;19.25;6.65;;;0.70;99.90;;;;;;5029029;28;20045;-66
2021/01/14 04:46:05;;;;;;;17.52;6.97;;;0.70;99.90;;;;;;5025122;28;20041;-66
2021/01/14 04:48:42;;;;;;;20.52;8.02;;;0.70;99.90;;;;;;5030018;28;20049;-66
2021/01/14 04:51:13;;;;;;;20.83;7.65;;;0.60;99.90;;;;;;5018018;28;20048;-68
2021/01/14 04:53:45;;;;;;;26.52;8.30;;;0.60;99.90;;;;;;5028925;28;20084;-67
2021/01/14 04:56:14;;;;;;;36.20;11.07;;;0.50;99.90;;;;;;5026602;28;20107;-66
2021/01/14 04:58:45;;;;;;;58.75;18.85;;;0.40;99.90;;;;;;5028669;28;20041;-66
2021/01/14 05:01:19;;;;;;;43.47;17.23;;;0.40;99.90;;;;;;5029821;28;20091;-67
2021/01/14 05:03:51;;;;;;;21.65;8.73;;;0.40;99.90;;;;;;5018727;28;20048;-67
2021/01/14 05:06:19;;;;;;;57.85;27.00;;;0.40;99.90;;;;;;5040607;28;20061;-66
2021/01/14 05:08:47;;;;;;;42.05;24.92;;;0.50;99.90;;;;;;5029438;28;20037;-66
2021/01/14 05:11:16;;;;;;;29.42;16.67;;;0.50;99.90;;;;;;5022302;28;20049;-67
2021/01/14 05:13:44;;;;;;;21.92;9.43;;;0.40;99.90;;;;;;5011471;28;20099;-66
2021/01/14 05:16:11;;;;;;;18.63;6.78;;;0.40;99.90;;;;;;5010354;28;20045;-67
2021/01/14 05:18:38;;;;;;;18.08;7.57;;;0.40;99.90;;;;;;5028328;28;20061;-68
2021/01/14 05:21:05;;;;;;;16.98;6.43;;;0.50;99.90;;;;;;5028786;28;20038;-67
2021/01/14 05:23:32;;;;;;;21.40;7.72;;;0.50;99.90;;;;;;5025769;28;20064;-67
2021/01/14 05:26:00;;;;;;;20.35;6.97;;;0.40;99.90;;;;;;5028117;28;20073;-67
2021/01/14 05:28:28;;;;;;;41.97;16.42;;;0.50;99.90;;;;;;5029896;28;20052;-67
2021/01/14 05:31:18;;;;;;;26.35;11.30;;;0.50;99.90;;;;;;5026080;28;20049;-67
2021/01/14 05:33:58;;;;;;;22.08;9.05;;;0.50;99.90;;;;;;5043644;28;20095;-67
2021/01/14 05:36:25;;;;;;;20.58;7.45;;;0.60;99.90;;;;;;5028910;28;20068;-67
2021/01/14 05:38:52;;;;;;;21.48;9.60;;;0.50;99.90;;;;;;5033489;28;20048;-67
2021/01/14 05:41:28;;;;;;;24.02;9.93;;;0.60;99.90;;;;;;5033065;28;20049;-67
2021/01/14 05:44:00;;;;;;;37.03;15.05;;;0.50;99.90;;;;;;5033076;28;20083;-66
2021/01/14 05:46:26;;;;;;;50.45;22.00;;;0.50;99.90;;;;;;5034926;28;20457;-66
2021/01/14 05:48:55;;;;;;;27.48;9.95;;;0.40;99.90;;;;;;5032515;28;20053;-66
2021/01/14 05:51:23;;;;;;;28.10;9.25;;;0.40;99.90;;;;;;5031808;28;20107;-66
2021/01/14 05:54:14;;;;;;;27.42;11.05;;;0.50;99.90;;;;;;5030750;28;20091;-66
2021/01/14 05:56:48;;;;;;;29.65;10.57;;;0.40;99.90;;;;;;5035118;28;20053;-66
2021/01/14 05:59:38;;;;;;;33.42;14.50;;;0.40;99.90;;;;;;5034167;28;20049;-65
2021/01/14 06:02:05;;;;;;;27.15;10.95;;;0.40;99.90;;;;;;5030010;28;20048;-66
2021/01/14 06:04:31;;;;;;;37.10;14.25;;;0.40;99.90;;;;;;5027359;28;20045;-66
2021/01/14 06:07:04;;;;;;;37.25;13.00;;;0.30;99.90;;;;;;5014450;28;20530;-66
2021/01/14 06:09:41;;;;;;;32.47;12.50;;;0.30;99.90;;;;;;5033589;28;20045;-66
2021/01/14 06:12:12;;;;;;;43.85;17.20;;;0.30;99.90;;;;;;5033607;28;20527;-66
2021/01/14 06:14:40;;;;;;;63.53;25.13;;;0.30;99.90;;;;;;5031759;28;20048;-66
2021/01/14 06:17:08;;;;;;;41.15;15.18;;;0.20;99.90;;;;;;5032550;28;20128;-66
2021/01/14 06:19:36;;;;;;;33.45;13.05;;;0.20;99.90;;;;;;5027103;28;20042;-66
2021/01/14 06:22:04;;;;;;;37.03;14.15;;;0.20;99.90;;;;;;5032970;28;20052;-67
2021/01/14 06:24:36;;;;;;;38.28;16.17;;;0.20;99.90;;;;;;5014328;28;20552;-66
2021/01/14 06:27:05;;;;;;;29.95;11.70;;;0.20;99.90;;;;;;5030167;28;20064;-66
2021/01/14 06:29:37;;;;;;;30.88;13.20;;;0.20;99.90;;;;;;5022663;28;20053;-66
2021/01/14 06:32:12;;;;;;;30.38;10.93;;;0.20;99.90;;;;;;5026111;28;20033;-66
2021/01/14 06:34:45;;;;;;;38.50;15.75;;;0.20;99.90;;;;;;5026785;28;20491;-67
2021/01/14 06:37:14;;;;;;;29.90;13.40;;;0.20;99.90;;;;;;5030481;28;20531;-67
2021/01/14 06:39:51;;;;;;;31.10;11.13;;;0.20;99.90;;;;;;5031360;28;20057;-66
2021/01/14 06:42:37;;;;;;;30.63;10.55;;;0.20;99.90;;;;;;5031528;28;20505;-68
2021/01/14 06:45:09;;;;;;;29.88;11.40;;;0.20;99.90;;;;;;5028475;28;20049;-67
2021/01/14 06:47:40;;;;;;;24.23;9.23;;;0.20;99.90;;;;;;5029427;28;20056;-67
2021/01/14 06:50:19;;;;;;;27.48;11.20;;;0.20;99.90;;;;;;5020905;28;20834;-65
2021/01/14 06:52:52;;;;;;;64.90;20.95;;;0.10;99.90;;;;;;5027661;28;20038;-65
2021/01/14 06:55:22;;;;;;;104.28;30.92;;;0.10;99.90;;;;;;5019305;28;20045;-66
2021/01/14 06:57:54;;;;;;;107.72;29.83;;;0.10;99.90;;;;;;5026774;28;20045;-65
2021/01/14 07:00:22;;;;;;;66.80;20.83;;;0.10;99.90;;;;;;5021805;28;20054;-66
2021/01/14 07:02:53;;;;;;;30.55;10.90;;;0.10;99.90;;;;;;5030481;28;20053;-65
2021/01/14 07:05:35;;;;;;;21.05;7.70;;;0.10;99.90;;;;;;5030466;28;20508;-65
2021/01/14 07:08:20;;;;;;;133.43;35.60;;;0.10;99.90;;;;;;5021994;28;20057;-65
2021/01/14 07:11:03;;;;;;;53.33;19.48;;;0.10;99.90;;;;;;5018142;28;20042;-66
2021/01/14 07:13:32;;;;;;;21.50;8.43;;;0.10;99.90;;;;;;5031132;28;20030;-65
2021/01/14 07:15:59;;;;;;;22.55;10.52;;;0.20;99.90;;;;;;5030114;28;20041;-65
2021/01/14 07:18:28;;;;;;;20.58;8.45;;;0.20;99.90;;;;;;5031469;28;20049;-65
2021/01/14 07:21:01;;;;;;;38.90;14.65;;;0.10;99.90;;;;;;5006573;28;639928;-65
2021/01/14 07:23:30;;;;;;;43.33;15.07;;;0.10;99.90;;;;;;5030395;28;20111;-66
2021/01/14 07:25:58;;;;;;;17.45;7.82;;;0.10;99.90;;;;;;5029938;28;20054;-65
2021/01/14 07:28:25;;;;;;;21.20;8.75;;;0.10;99.90;;;;;;5018740;28;20041;-65
2021/01/14 07:30:51;;;;;;;30.15;12.18;;;0.10;99.90;;;;;;5029355;28;20052;-65
2021/01/14 07:33:26;;;;;;;32.20;10.52;;;0.20;99.90;;;;;;5034068;28;20041;-65
2021/01/14 07:35:54;;;;;;;44.25;16.25;;;0.20;99.90;;;;;;5031023;28;20068;-65
2021/01/14 07:38:21;;;;;;;30.88;12.88;;;0.20;99.90;;;;;;5029312;28;20052;-65
2021/01/14 07:40:59;;;;;;;33.22;12.68;;;0.30;99.90;;;;;;5018806;28;20068;-64
2021/01/14 07:43:32;;;;;;;26.20;11.45;;;0.40;99.90;;;;;;5028809;28;20053;-64
2021/01/14 07:46:20;;;;;;;22.55;7.47;;;0.50;99.90;;;;;;5001499;28;20046;-65
2021/01/14 07:48:51;;;;;;;20.63;9.18;;;0.50;99.90;;;;;;5024112;28;20042;-65
2021/01/14 07:51:19;;;;;;;19.95;8.70;;;0.70;99.90;;;;;;5027976;28;20045;-65
2021/01/14 07:54:08;;;;;;;19.58;6.85;;;0.80;99.90;;;;;;5029787;28;20042;-65
2021/01/14 07:56:49;;;;;;;20.40;8.77;;;0.90;99.90;;;;;;5019791;28;20057;-65
2021/01/14 07:59:27;;;;;;;34.72;13.18;;;1.00;99.90;;;;;;5026851;28;20092;-66
2021/01/14 08:02:07;;;;;;;17.90;8.18;;;1.10;99.90;;;;;;5025572;28;20473;-66
2021/01/14 08:04:52;;;;;;;24.05;7.78;;;1.10;99.90;;;;;;5028584;28;20045;-65
2021/01/14 08:07:26;;;;;;;14.50;6.45;;;1.10;99.90;;;;;;5038013;28;20481;-66
2021/01/14 08:09:53;;;;;;;16.35;5.63;;;1.10;99.90;;;;;;5029088;28;20060;-66
2021/01/14 08:12:28;;;;;;;14.43;5.55;;;1.00;99.90;;;;;;5027748;28;20041;-66
2021/01/14 08:14:55;;;;;;;12.32;4.85;;;1.10;99.90;;;;;;5023704;28;20045;-65
2021/01/14 08:17:29;;;;;;;13.65;5.95;;;1.10;99.90;;;;;;5022791;28;20046;-65
2021/01/14 08:19:56;;;;;;;15.73;5.97;;;1.10;99.90;;;;;;5028806;28;20049;-65
2021/01/14 08:22:24;;;;;;;9.70;4.10;;;1.10;99.90;;;;;;5027430;28;20080;-65
2021/01/14 08:24:54;;;;;;;21.42;6.53;;;1.10;99.90;;;;;;5025323;28;20037;-66
2021/01/14 08:27:21;;;;;;;11.90;4.80;;;1.10;99.90;;;;;;5029079;28;20055;-65
2021/01/14 08:29:58;;;;;;;14.10;4.95;;;1.10;99.90;;;;;;5028092;28;20693;-66
2021/01/14 08:32:34;;;;;;;13.20;4.50;;;1.00;99.90;;;;;;5031443;28;20064;-65
2021/01/14 08:35:22;;;;;;;13.40;6.03;;;1.00;99.90;;;;;;5025966;28;20038;-65
2021/01/14 08:38:01;;;;;;;15.20;4.55;;;1.10;99.90;;;;;;5019473;28;20423;-64
2021/01/14 08:40:32;;;;;;;7.15;2.63;;;1.30;99.90;;;;;;5023441;28;20044;-65
2021/01/14 08:43:05;;;;;;;5.32;2.17;;;1.60;99.90;;;;;;5021972;28;20763;-64
2021/01/14 08:45:42;;;;;;;4.05;2.08;;;2.00;99.90;;;;;;5016131;28;20346;-64
2021/01/14 08:48:29;;;;;;;3.17;1.38;;;2.20;99.90;;;;;;5026367;28;20037;-64
2021/01/14 08:50:56;;;;;;;2.35;0.93;;;2.50;99.90;;;;;;5024895;28;20045;-63
2021/01/14 08:53:25;;;;;;;3.65;1.02;;;2.80;99.90;;;;;;5019025;28;20041;-64
2021/01/14 08:56:15;;;;;;;3.33;0.88;;;3.00;97.70;;;;;;5009007;28;20060;-64
2021/01/14 08:58:49;;;;;;;3.90;1.13;;;3.20;97.10;;;;;;5025250;28;20052;-66
2021/01/14 09:01:20;;;;;;;3.00;1.00;;;3.30;95.00;;;;;;5036483;28;20050;-65
2021/01/14 09:03:48;;;;;;;3.25;0.80;;;3.40;94.70;;;;;;5021519;28;20057;-66
2021/01/14 09:06:16;;;;;;;2.55;0.73;;;3.40;93.20;;;;;;5027242;28;20103;-65
2021/01/14 09:08:52;;;;;;;1.67;0.50;;;3.50;93.10;;;;;;5027134;28;20076;-65
2021/01/14 09:11:26;;;;;;;2.35;0.90;;;3.70;91.90;;;;;;5021223;28;20041;-66
2021/01/14 09:14:13;;;;;;;3.20;0.65;;;3.80;90.70;;;;;;5035594;28;20051;-65
2021/01/14 09:16:42;;;;;;;5.80;2.42;;;3.90;90.70;;;;;;5029726;28;20032;-65
2021/01/14 09:19:17;;;;;;;3.15;1.10;;;4.00;91.00;;;;;;5024124;28;20050;-65
2021/01/14 09:21:44;;;;;;;1.65;0.63;;;4.10;88.00;;;;;;5025426;28;20568;-66
2021/01/14 09:24:13;;;;;;;3.33;0.63;;;4.10;86.20;;;;;;5022645;28;20041;-66
2021/01/14 09:26:41;;;;;;;4.30;1.25;;;4.10;87.80;;;;;;5023835;28;20049;-66
2021/01/14 09:29:11;;;;;;;5.28;2.58;;;4.20;88.90;;;;;;5021046;28;20041;-66
2021/01/14 09:31:41;;;;;;;3.95;0.68;;;4.40;86.10;;;;;;5009942;28;20050;-66
2021/01/14 09:34:08;;;;;;;1.45;0.63;;;4.30;84.60;;;;;;5021250;28;20385;-66
2021/01/14 09:36:35;;;;;;;2.30;0.57;;;4.30;84.00;;;;;;5025226;28;20049;-66
2021/01/14 09:39:05;;;;;;;3.78;1.02;;;4.20;83.40;;;;;;5014305;28;20626;-66
2021/01/14 09:41:39;;;;;;;3.13;0.75;;;4.20;83.30;;;;;;5022337;28;20951;-67
2021/01/14 09:44:08;;;;;;;3.03;0.80;;;4.20;82.90;;;;;;5025774;28;20045;-67
2021/01/14 09:46:39;;;;;;;4.60;1.00;;;4.30;81.20;;;;;;5024114;28;20050;-67
2021/01/14 09:49:09;;;;;;;2.58;0.93;;;4.20;82.50;;;;;;5023039;28;20102;-67
2021/01/14 09:51:37;;;;;;;2.22;1.08;;;4.20;82.60;;;;;;5017080;28;20723;-67
2021/01/14 09:54:05;;;;;;;1.98;0.70;;;4.30;80.90;;;;;;5018694;28;20041;-67
2021/01/14 09:56:41;;;;;;;2.78;0.85;;;4.20;80.30;;;;;;5016236;28;20124;-67
2021/01/14 09:59:24;;;;;;;2.38;0.65;;;4.10;80.30;;;;;;5020527;28;20094;-67
2021/01/14 10:01:56;;;;;;;1.00;0.30;;;4.30;81.00;;;;;;5017455;28;20045;-65
2021/01/14 10:04:25;;;;;;;3.35;0.95;;;4.30;79.90;;;;;;5021659;28;20049;-66
2021/01/14 10:07:21;;;;;;;3.10;0.80;;;4.40;78.70;;;;;;5019822;28;20042;-66
2021/01/14 10:09:52;;;;;;;3.13;0.50;;;4.50;79.80;;;;;;5022626;28;20068;-66
2021/01/14 10:12:19;;;;;;;2.97;0.70;;;4.70;79.10;;;;;;5027326;28;20049;-66
2021/01/14 10:14:45;;;;;;;3.55;0.90;;;4.70;77.60;;;;;;5023977;28;20038;-66
2021/01/14 10:17:14;;;;;;;2.92;1.50;;;4.90;78.60;;;;;;5029341;28;20108;-66
2021/01/14 10:19:50;;;;;;;3.40;1.40;;;5.00;78.00;;;;;;5022876;28;20058;-66
2021/01/14 10:22:21;;;;;;;5.43;1.40;;;5.20;77.40;;;;;;5024235;28;20045;-66
2021/01/14 10:24:48;;;;;;;3.50;1.08;;;5.30;76.60;;;;;;5023991;28;20157;-67
2021/01/14 10:27:20;;;;;;;5.30;2.03;;;5.30;74.90;;;;;;5026718;28;20095;-67
2021/01/14 10:29:47;;;;;;;9.82;3.60;;;5.30;76.30;;;;;;5023912;28;20069;-66
2021/01/14 10:32:16;;;;;;;9.75;3.15;;;5.40;74.70;;;;;;5028312;28;20048;-66
2021/01/14 10:34:48;;;;;;;7.03;2.25;;;5.50;74.50;;;;;;5027474;28;20041;-65
2021/01/14 10:37:30;;;;;;;5.55;1.25;;;5.50;73.40;;;;;;4997995;28;20408;-67
2021/01/14 10:39:59;;;;;;;6.53;2.75;;;5.50;74.00;;;;;;5020853;28;20053;-65
2021/01/14 10:42:38;;;;;;;3.33;1.17;;;5.70;74.20;;;;;;5022269;28;20105;-66
2021/01/14 10:45:07;;;;;;;4.03;0.80;;;5.60;74.60;;;;;;5024941;28;20057;-66
2021/01/14 10:47:35;;;;;;;2.95;1.08;;;5.50;73.60;;;;;;5021364;28;20037;-65
2021/01/14 10:50:18;;;;;;;2.83;1.17;;;5.20;74.40;;;;;;5019940;28;20049;-66
2021/01/14 10:52:59;;;;;;;4.60;1.17;;;4.80;75.90;;;;;;5019986;28;20050;-66
2021/01/14 10:55:26;;;;;;;2.10;0.98;;;4.50;77.40;;;;;;5024399;28;20050;-65
2021/01/14 10:58:04;;;;;;;2.17;0.73;;;4.30;78.10;;;;;;5021768;28;20045;-65
2021/01/14 11:00:38;;;;;;;2.25;0.95;;;4.30;78.70;;;;;;5018282;28;20045;-65
2021/01/14 11:03:14;;;;;;;2.40;0.93;;;4.30;78.20;;;;;;5022476;28;20571;-65
2021/01/14 11:05:48;;;;;;;1.88;0.70;;;4.40;78.50;;;;;;5017431;28;20041;-65
2021/01/14 11:08:23;;;;;;;4.18;0.82;;;4.50;78.60;;;;;;5025876;28;20687;-64
2021/01/14 11:11:05;;;;;;;2.65;0.80;;;4.80;76.10;;;;;;5004425;28;20049;-67
2021/01/14 11:13:49;;;;;;;;;;;4.50;78.40;;;;;;5023635;28;20431;-67
2021/01/14 11:16:20;;;;;;;4.43;1.63;;;4.20;81.10;;;;;;5023432;28;19931;-66
2021/01/14 11:18:49;;;;;;;4.20;1.40;;;3.90;82.70;;;;;;5020784;28;20041;-64
2021/01/14 11:21:30;;;;;;;2.53;1.10;;;3.60;82.90;;;;;;5019218;28;21205;-63
2021/01/14 11:23:58;;;;;;;29.85;3.38;;;3.30;83.10;;;;;;5023177;28;20128;-65
2021/01/14 11:26:25;;;;;;;14.40;2.08;;;3.20;85.00;;;;;;5026213;28;20048;-63
2021/01/14 11:28:53;;;;;;;29.17;4.90;;;3.30;86.10;;;;;;5024731;28;20690;-64
2021/01/14 11:31:24;;;;;;;4.90;1.48;;;3.20;85.10;;;;;;5008595;28;20065;-63
2021/01/14 11:33:51;;;;;;;3.17;1.33;;;3.20;84.90;;;;;;5022880;28;22399;-64
2021/01/14 11:36:20;;;;;;;4.63;1.30;;;3.30;84.50;;;;;;5032317;28;20091;-63
2021/01/14 11:38:51;;;;;;;3.80;1.30;;;3.30;85.10;;;;;;5025561;28;20365;-63
2021/01/14 11:41:19;;;;;;;6.30;1.30;;;3.40;83.80;;;;;;5030724;28;20041;-63
2021/01/14 11:43:46;;;;;;;5.25;1.40;;;3.60;85.10;;;;;;5028710;28;20721;-63
2021/01/14 11:46:20;;;;;;;3.53;1.00;;;3.90;86.00;;;;;;5022046;28;20046;-63
2021/01/14 11:48:47;;;;;;;3.45;1.05;;;4.00;83.20;;;;;;5022731;28;20037;-63
2021/01/14 11:51:14;;;;;;;3.67;1.25;;;4.10;81.40;;;;;;5024365;28;20045;-63
2021/01/14 11:53:40;;;;;;;3.63;1.05;;;4.00;81.20;;;;;;5023457;28;20053;-63
2021/01/14 11:56:07;;;;;;;2.38;1.05;;;3.90;81.80;;;;;;5025821;28;20067;-63
2021/01/14 11:58:37;;;;;;;4.15;1.00;;;3.90;81.80;;;;;;5020473;28;20050;-63
2021/01/14 12:01:03;;;;;;;3.08;1.00;;;3.70;81.00;;;;;;5025044;28;20107;-63
2021/01/14 12:03:31;;;;;;;5.45;1.73;;;3.80;82.20;;;;;;5032097;28;20045;-63
2021/01/14 12:05:58;;;;;;;3.80;1.13;;;4.10;81.40;;;;;;5031853;28;20480;-62
2021/01/14 12:08:25;;;;;;;3.13;0.88;;;4.20;81.80;;;;;;5025314;28;20749;-63
2021/01/14 12:10:51;;;;;;;4.07;1.42;;;4.20;81.40;;;;;;5032587;28;20049;-63
2021/01/14 12:13:18;;;;;;;3.03;1.23;;;4.00;80.10;;;;;;5032944;28;20033;-63
2021/01/14 12:15:44;;;;;;;2.05;0.73;;;4.00;79.80;;;;;;5029293;28;20396;-63
2021/01/14 12:18:11;;;;;;;3.15;0.73;;;3.90;80.00;;;;;;5028493;28;20099;-64
2021/01/14 12:20:37;;;;;;;6.07;0.95;;;3.70;79.20;;;;;;5033632;28;20042;-63
2021/01/14 12:23:04;;;;;;;4.85;0.98;;;3.60;81.00;;;;;;5020460;28;20046;-63
2021/01/14 12:25:30;;;;;;;3.05;1.00;;;3.50;80.10;;;;;;5013312;28;20698;-64
2021/01/14 12:27:57;;;;;;;2.38;0.70;;;3.30;80.40;;;;;;5030151;28;20730;-63
2021/01/14 12:30:23;;;;;;;1.73;0.85;;;3.10;81.10;;;;;;5026194;28;20076;-63
2021/01/14 12:32:50;;;;;;;4.68;0.98;;;3.10;82.10;;;;;;5027254;28;20052;-62
2021/01/14 12:35:16;;;;;;;3.00;1.13;;;3.00;82.10;;;;;;5015417;28;20050;-62
2021/01/14 12:37:43;;;;;;;5.43;1.10;;;3.00;83.80;;;;;;5024182;28;20049;-62
2021/01/14 12:40:10;;;;;;;3.17;0.98;;;3.10;83.40;;;;;;5027359;28;20037;-62
2021/01/14 12:42:37;;;;;;;5.78;1.00;;;3.40;82.70;;;;;;5027604;28;20052;-63
2021/01/14 12:45:06;;;;;;;2.58;0.98;;;3.80;81.80;;;;;;5018757;28;20428;-62
2021/01/14 12:47:32;;;;;;;5.40;0.90;;;4.20;80.80;;;;;;5021695;28;20049;-62
2021/01/14 12:49:59;;;;;;;5.03;1.10;;;4.40;78.60;;;;;;5024992;28;20076;-63
2021/01/14 12:52:25;;;;;;;5.13;1.10;;;4.50;78.60;;;;;;5033364;28;20060;-63
2021/01/14 12:54:52;;;;;;;2.35;1.08;;;4.60;76.90;;;;;;5023718;28;20045;-63
2021/01/14 12:57:18;;;;;;;3.75;1.85;;;4.80;76.70;;;;;;5028616;28;20500;-63
2021/01/14 12:59:46;;;;;;;3.75;1.02;;;5.00;75.40;;;;;;5028339;28;20598;-62
2021/01/14 13:02:12;;;;;;;5.78;2.40;;;5.10;75.80;;;;;;5028835;28;20049;-62
2021/01/14 13:04:39;;;;;;;6.70;3.30;;;5.30;74.70;;;;;;5030528;28;20417;-62